sensor_id;sensor_type;location;lat;lon;timestamp;P1;durP1;ratioP1;P2;durP2;ratioP2
74259;SDS011;62630;55.874;37.516;2023-06-10T00:01:39;2.45;;;1.40;;
74259;SDS011;62630;55.874;37.516;2023-06-10T00:04:04;3.25;;;1.80;;
74259;SDS011;62630;55.874;37.516;2023-06-10T00:06:30;3.35;;;1.42;;
74259;SDS011;62630;55.874;37.516;2023-06-10T00:09:03;3.22;;;1.63;;
74259;SDS011;62630;55.874;37.516;2023-06-10T00:11:32;2.20;;;1.35;;
74259;SDS011;62630;55.874;37.516;2023-06-10T00:14:18;6.35;;;2.17;;
74259;SDS011;62630;55.874;37.516;2023-06-10T00:16:44;4.65;;;1.70;;
74259;SDS011;62630;55.874;37.516;2023-06-10T00:19:10;3.20;;;1.85;;
74259;SDS011;62630;55.874;37.516;2023-06-10T00:21:38;4.18;;;2.05;;
74259;SDS011;62630;55.874;37.516;2023-06-10T00:26:32;3.30;;;2.00;;
74259;SDS011;62630;55.874;37.516;2023-06-10T00:28:58;3.10;;;1.63;;
74259;SDS011;62630;55.874;37.516;2023-06-10T00:31:24;3.70;;;2.30;;
74259;SDS011;62630;55.874;37.516;2023-06-10T00:33:51;3.30;;;1.98;;
74259;SDS011;62630;55.874;37.516;2023-06-10T00:36:17;6.32;;;2.25;;
74259;SDS011;62630;55.874;37.516;2023-06-10T00:38:43;5.78;;;2.97;;
74259;SDS011;62630;55.874;37.516;2023-06-10T00:41:08;4.25;;;1.80;;
74259;SDS011;62630;55.874;37.516;2023-06-10T00:43:34;4.18;;;1.80;;
74259;SDS011;62630;55.874;37.516;2023-06-10T00:46:00;3.70;;;2.10;;
74259;SDS011;62630;55.874;37.516;2023-06-10T00:48:26;5.65;;;2.20;;
74259;SDS011;62630;55.874;37.516;2023-06-10T00:50:52;5.40;;;2.50;;
74259;SDS011;62630;55.874;37.516;2023-06-10T00:53:18;4.38;;;1.90;;
74259;SDS011;62630;55.874;37.516;2023-06-10T00:55:45;4.38;;;1.95;;
74259;SDS011;62630;55.874;37.516;2023-06-10T00:58:11;5.57;;;2.35;;
74259;SDS011;62630;55.874;37.516;2023-06-10T01:00:37;3.00;;;1.90;;
74259;SDS011;62630;55.874;37.516;2023-06-10T01:03:03;9.05;;;2.20;;
74259;SDS011;62630;55.874;37.516;2023-06-10T01:05:32;7.35;;;2.22;;
74259;SDS011;62630;55.874;37.516;2023-06-10T01:08:17;4.32;;;2.22;;
74259;SDS011;62630;55.874;37.516;2023-06-10T01:10:52;8.13;;;2.53;;
74259;SDS011;62630;55.874;37.516;2023-06-10T01:13:21;8.63;;;2.92;;
74259;SDS011;62630;55.874;37.516;2023-06-10T01:15:49;4.22;;;2.22;;
74259;SDS011;62630;55.874;37.516;2023-06-10T01:18:16;7.28;;;2.13;;
74259;SDS011;62630;55.874;37.516;2023-06-10T01:20:42;13.25;;;2.58;;
74259;SDS011;62630;55.874;37.516;2023-06-10T01:23:09;5.50;;;2.17;;
74259;SDS011;62630;55.874;37.516;2023-06-10T01:25:37;12.55;;;2.10;;
74259;SDS011;62630;55.874;37.516;2023-06-10T01:33:29;5.15;;;1.88;;
74259;SDS011;62630;55.874;37.516;2023-06-10T01:35:58;10.45;;;2.60;;
74259;SDS011;62630;55.874;37.516;2023-06-10T01:38:26;11.90;;;2.40;;
74259;SDS011;62630;55.874;37.516;2023-06-10T01:40:52;8.00;;;2.00;;
74259;SDS011;62630;55.874;37.516;2023-06-10T01:43:21;6.68;;;1.80;;
74259;SDS011;62630;55.874;37.516;2023-06-10T01:45:47;13.05;;;2.25;;
74259;SDS011;62630;55.874;37.516;2023-06-10T01:48:13;7.55;;;1.90;;
74259;SDS011;62630;55.874;37.516;2023-06-10T01:50:38;6.45;;;1.85;;
74259;SDS011;62630;55.874;37.516;2023-06-10T01:53:04;4.13;;;2.05;;
74259;SDS011;62630;55.874;37.516;2023-06-10T01:55:32;4.18;;;1.90;;
74259;SDS011;62630;55.874;37.516;2023-06-10T01:57:58;10.35;;;1.60;;
74259;SDS011;62630;55.874;37.516;2023-06-10T02:00:23;3.78;;;1.42;;
74259;SDS011;62630;55.874;37.516;2023-06-10T02:02:49;3.67;;;1.60;;
74259;SDS011;62630;55.874;37.516;2023-06-10T02:05:15;3.13;;;1.70;;
74259;SDS011;62630;55.874;37.516;2023-06-10T02:07:40;2.40;;;1.45;;
74259;SDS011;62630;55.874;37.516;2023-06-10T02:10:06;1.80;;;1.33;;
74259;SDS011;62630;55.874;37.516;2023-06-10T02:12:32;3.20;;;1.42;;
74259;SDS011;62630;55.874;37.516;2023-06-10T02:14:57;3.45;;;1.60;;
74259;SDS011;62630;55.874;37.516;2023-06-10T02:17:23;3.92;;;1.35;;
74259;SDS011;62630;55.874;37.516;2023-06-10T02:19:49;5.43;;;1.42;;
74259;SDS011;62630;55.874;37.516;2023-06-10T02:22:21;6.10;;;1.60;;
74259;SDS011;62630;55.874;37.516;2023-06-10T02:24:47;2.33;;;1.48;;
74259;SDS011;62630;55.874;37.516;2023-06-10T02:27:13;3.45;;;1.30;;
74259;SDS011;62630;55.874;37.516;2023-06-10T02:29:40;2.67;;;1.50;;
74259;SDS011;62630;55.874;37.516;2023-06-10T02:32:06;3.35;;;1.30;;
74259;SDS011;62630;55.874;37.516;2023-06-10T02:34:32;2.10;;;1.33;;
74259;SDS011;62630;55.874;37.516;2023-06-10T02:36:58;2.67;;;1.20;;
74259;SDS011;62630;55.874;37.516;2023-06-10T02:39:24;3.00;;;1.73;;
74259;SDS011;62630;55.874;37.516;2023-06-10T02:41:50;5.65;;;2.05;;
74259;SDS011;62630;55.874;37.516;2023-06-10T02:44:17;5.80;;;1.45;;
74259;SDS011;62630;55.874;37.516;2023-06-10T02:46:43;2.35;;;1.40;;
74259;SDS011;62630;55.874;37.516;2023-06-10T02:49:09;3.47;;;1.48;;
74259;SDS011;62630;55.874;37.516;2023-06-10T02:51:34;3.42;;;1.40;;
74259;SDS011;62630;55.874;37.516;2023-06-10T02:54:01;1.98;;;1.35;;
74259;SDS011;62630;55.874;37.516;2023-06-10T02:56:26;4.10;;;1.50;;
74259;SDS011;62630;55.874;37.516;2023-06-10T02:58:52;3.17;;;1.40;;
74259;SDS011;62630;55.874;37.516;2023-06-10T03:01:18;5.18;;;1.50;;
74259;SDS011;62630;55.874;37.516;2023-06-10T03:03:44;3.40;;;1.58;;
74259;SDS011;62630;55.874;37.516;2023-06-10T03:06:11;2.63;;;1.48;;
74259;SDS011;62630;55.874;37.516;2023-06-10T03:08:37;5.65;;;1.42;;
74259;SDS011;62630;55.874;37.516;2023-06-10T03:11:03;4.72;;;1.63;;
74259;SDS011;62630;55.874;37.516;2023-06-10T03:13:29;4.88;;;1.95;;
74259;SDS011;62630;55.874;37.516;2023-06-10T03:15:55;2.30;;;1.27;;
74259;SDS011;62630;55.874;37.516;2023-06-10T03:18:27;1.60;;;0.95;;
74259;SDS011;62630;55.874;37.516;2023-06-10T03:20:53;3.60;;;1.10;;
74259;SDS011;62630;55.874;37.516;2023-06-10T03:23:22;2.20;;;1.10;;
74259;SDS011;62630;55.874;37.516;2023-06-10T03:25:48;3.50;;;1.13;;
74259;SDS011;62630;55.874;37.516;2023-06-10T03:28:13;3.00;;;1.15;;
74259;SDS011;62630;55.874;37.516;2023-06-10T03:30:39;3.13;;;1.20;;
74259;SDS011;62630;55.874;37.516;2023-06-10T03:33:05;3.08;;;1.33;;
74259;SDS011;62630;55.874;37.516;2023-06-10T03:35:30;1.95;;;1.10;;
74259;SDS011;62630;55.874;37.516;2023-06-10T03:37:57;2.30;;;1.20;;
74259;SDS011;62630;55.874;37.516;2023-06-10T03:40:29;5.00;;;1.08;;
74259;SDS011;62630;55.874;37.516;2023-06-10T03:42:56;5.45;;;1.33;;
74259;SDS011;62630;55.874;37.516;2023-06-10T03:45:22;4.72;;;1.23;;
74259;SDS011;62630;55.874;37.516;2023-06-10T03:47:49;3.28;;;1.15;;
74259;SDS011;62630;55.874;37.516;2023-06-10T03:50:15;5.63;;;1.10;;
74259;SDS011;62630;55.874;37.516;2023-06-10T03:52:41;3.10;;;1.02;;
74259;SDS011;62630;55.874;37.516;2023-06-10T03:55:07;3.45;;;0.90;;
74259;SDS011;62630;55.874;37.516;2023-06-10T03:57:32;3.25;;;0.80;;
74259;SDS011;62630;55.874;37.516;2023-06-10T03:59:58;1.50;;;0.82;;
74259;SDS011;62630;55.874;37.516;2023-06-10T04:02:23;3.22;;;1.13;;
74259;SDS011;62630;55.874;37.516;2023-06-10T04:04:50;8.73;;;1.33;;
74259;SDS011;62630;55.874;37.516;2023-06-10T04:07:16;1.15;;;0.80;;
74259;SDS011;62630;55.874;37.516;2023-06-10T04:09:44;6.80;;;1.40;;
74259;SDS011;62630;55.874;37.516;2023-06-10T04:12:09;4.53;;;1.02;;
74259;SDS011;62630;55.874;37.516;2023-06-10T04:14:35;2.45;;;1.00;;
74259;SDS011;62630;55.874;37.516;2023-06-10T04:17:02;8.70;;;1.10;;
74259;SDS011;62630;55.874;37.516;2023-06-10T04:19:31;1.80;;;1.00;;
74259;SDS011;62630;55.874;37.516;2023-06-10T04:21:57;2.08;;;0.90;;
74259;SDS011;62630;55.874;37.516;2023-06-10T04:24:23;5.78;;;1.27;;
74259;SDS011;62630;55.874;37.516;2023-06-10T04:26:48;3.75;;;0.93;;
74259;SDS011;62630;55.874;37.516;2023-06-10T04:29:14;1.52;;;0.80;;
74259;SDS011;62630;55.874;37.516;2023-06-10T04:31:40;2.25;;;0.95;;
74259;SDS011;62630;55.874;37.516;2023-06-10T04:34:08;2.92;;;1.13;;
74259;SDS011;62630;55.874;37.516;2023-06-10T04:36:33;2.53;;;1.08;;
74259;SDS011;62630;55.874;37.516;2023-06-10T04:41:57;2.83;;;1.10;;
74259;SDS011;62630;55.874;37.516;2023-06-10T04:44:28;1.63;;;1.02;;
74259;SDS011;62630;55.874;37.516;2023-06-10T04:46:54;2.65;;;0.85;;
74259;SDS011;62630;55.874;37.516;2023-06-10T04:49:20;1.70;;;1.00;;
74259;SDS011;62630;55.874;37.516;2023-06-10T04:51:46;5.53;;;1.50;;
74259;SDS011;62630;55.874;37.516;2023-06-10T04:54:11;3.25;;;0.90;;
74259;SDS011;62630;55.874;37.516;2023-06-10T04:56:37;1.50;;;1.00;;
74259;SDS011;62630;55.874;37.516;2023-06-10T04:59:04;4.05;;;1.30;;
74259;SDS011;62630;55.874;37.516;2023-06-10T05:01:29;5.57;;;1.00;;
74259;SDS011;62630;55.874;37.516;2023-06-10T05:03:55;2.28;;;0.90;;
74259;SDS011;62630;55.874;37.516;2023-06-10T05:06:21;0.85;;;0.80;;
74259;SDS011;62630;55.874;37.516;2023-06-10T05:08:46;1.10;;;0.90;;
74259;SDS011;62630;55.874;37.516;2023-06-10T05:11:12;5.07;;;1.20;;
74259;SDS011;62630;55.874;37.516;2023-06-10T05:13:37;1.30;;;1.05;;
74259;SDS011;62630;55.874;37.516;2023-06-10T05:16:05;0.82;;;0.80;;
74259;SDS011;62630;55.874;37.516;2023-06-10T05:18:31;3.67;;;1.17;;
74259;SDS011;62630;55.874;37.516;2023-06-10T05:20:57;2.90;;;1.10;;
74259;SDS011;62630;55.874;37.516;2023-06-10T05:23:22;2.25;;;0.90;;
74259;SDS011;62630;55.874;37.516;2023-06-10T05:25:48;1.30;;;0.77;;
74259;SDS011;62630;55.874;37.516;2023-06-10T05:28:13;5.13;;;1.00;;
74259;SDS011;62630;55.874;37.516;2023-06-10T05:30:39;2.25;;;0.63;;
74259;SDS011;62630;55.874;37.516;2023-06-10T05:33:05;1.67;;;0.60;;
74259;SDS011;62630;55.874;37.516;2023-06-10T05:35:31;3.08;;;0.90;;
74259;SDS011;62630;55.874;37.516;2023-06-10T05:37:57;1.00;;;0.77;;
74259;SDS011;62630;55.874;37.516;2023-06-10T05:40:22;1.30;;;0.80;;
74259;SDS011;62630;55.874;37.516;2023-06-10T05:42:48;0.95;;;0.60;;
74259;SDS011;62630;55.874;37.516;2023-06-10T05:45:14;2.80;;;0.90;;
74259;SDS011;62630;55.874;37.516;2023-06-10T05:47:40;2.63;;;0.80;;
74259;SDS011;62630;55.874;37.516;2023-06-10T05:50:06;3.08;;;0.80;;
74259;SDS011;62630;55.874;37.516;2023-06-10T05:52:35;5.88;;;1.15;;
74259;SDS011;62630;55.874;37.516;2023-06-10T05:55:04;2.60;;;1.02;;
74259;SDS011;62630;55.874;37.516;2023-06-10T05:57:30;2.13;;;0.65;;
74259;SDS011;62630;55.874;37.516;2023-06-10T05:59:56;1.77;;;1.17;;
74259;SDS011;62630;55.874;37.516;2023-06-10T06:02:21;5.75;;;0.98;;
74259;SDS011;62630;55.874;37.516;2023-06-10T06:04:47;3.33;;;1.10;;
74259;SDS011;62630;55.874;37.516;2023-06-10T06:07:12;1.52;;;1.10;;
74259;SDS011;62630;55.874;37.516;2023-06-10T06:09:38;7.68;;;1.60;;
74259;SDS011;62630;55.874;37.516;2023-06-10T06:12:03;2.10;;;1.00;;
74259;SDS011;62630;55.874;37.516;2023-06-10T06:14:31;4.90;;;1.00;;
74259;SDS011;62630;55.874;37.516;2023-06-10T06:16:57;4.93;;;1.00;;
74259;SDS011;62630;55.874;37.516;2023-06-10T06:19:23;2.53;;;0.82;;
74259;SDS011;62630;55.874;37.516;2023-06-10T06:21:48;2.45;;;0.80;;
74259;SDS011;62630;55.874;37.516;2023-06-10T06:24:14;2.38;;;0.93;;
74259;SDS011;62630;55.874;37.516;2023-06-10T06:26:41;3.60;;;0.82;;
74259;SDS011;62630;55.874;37.516;2023-06-10T06:29:06;1.65;;;0.70;;
74259;SDS011;62630;55.874;37.516;2023-06-10T06:31:32;1.88;;;1.00;;
74259;SDS011;62630;55.874;37.516;2023-06-10T06:33:58;1.02;;;0.80;;
74259;SDS011;62630;55.874;37.516;2023-06-10T06:36:23;4.13;;;0.80;;
74259;SDS011;62630;55.874;37.516;2023-06-10T06:38:49;1.48;;;0.80;;
74259;SDS011;62630;55.874;37.516;2023-06-10T06:41:14;3.22;;;0.65;;
74259;SDS011;62630;55.874;37.516;2023-06-10T06:43:40;4.72;;;1.23;;
74259;SDS011;62630;55.874;37.516;2023-06-10T06:46:07;2.28;;;1.30;;
74259;SDS011;62630;55.874;37.516;2023-06-10T06:48:32;1.38;;;0.82;;
74259;SDS011;62630;55.874;37.516;2023-06-10T06:50:58;4.97;;;0.77;;
74259;SDS011;62630;55.874;37.516;2023-06-10T06:53:24;1.00;;;0.57;;
74259;SDS011;62630;55.874;37.516;2023-06-10T06:55:50;3.35;;;1.00;;
74259;SDS011;62630;55.874;37.516;2023-06-10T06:58:15;1.27;;;0.75;;
74259;SDS011;62630;55.874;37.516;2023-06-10T07:00:41;1.95;;;0.75;;
74259;SDS011;62630;55.874;37.516;2023-06-10T07:03:06;1.30;;;0.90;;
74259;SDS011;62630;55.874;37.516;2023-06-10T07:05:32;5.68;;;0.80;;
74259;SDS011;62630;55.874;37.516;2023-06-10T07:07:57;7.22;;;0.90;;
74259;SDS011;62630;55.874;37.516;2023-06-10T07:10:23;2.03;;;0.80;;
74259;SDS011;62630;55.874;37.516;2023-06-10T07:12:50;2.28;;;0.80;;
74259;SDS011;62630;55.874;37.516;2023-06-10T07:15:16;3.25;;;0.55;;
74259;SDS011;62630;55.874;37.516;2023-06-10T07:17:41;3.83;;;0.70;;
74259;SDS011;62630;55.874;37.516;2023-06-10T07:20:07;1.83;;;0.55;;
74259;SDS011;62630;55.874;37.516;2023-06-10T07:22:33;2.17;;;0.70;;
74259;SDS011;62630;55.874;37.516;2023-06-10T07:24:59;1.75;;;0.65;;
74259;SDS011;62630;55.874;37.516;2023-06-10T07:27:24;2.17;;;0.70;;
74259;SDS011;62630;55.874;37.516;2023-06-10T07:29:50;2.90;;;1.20;;
74259;SDS011;62630;55.874;37.516;2023-06-10T07:32:17;2.97;;;0.60;;
74259;SDS011;62630;55.874;37.516;2023-06-10T07:34:42;8.77;;;0.77;;
74259;SDS011;62630;55.874;37.516;2023-06-10T07:37:08;3.83;;;0.60;;
74259;SDS011;62630;55.874;37.516;2023-06-10T07:39:34;3.75;;;0.70;;
74259;SDS011;62630;55.874;37.516;2023-06-10T07:41:59;7.93;;;0.85;;
74259;SDS011;62630;55.874;37.516;2023-06-10T07:44:26;2.67;;;0.82;;
74259;SDS011;62630;55.874;37.516;2023-06-10T07:46:51;3.60;;;0.85;;
74259;SDS011;62630;55.874;37.516;2023-06-10T07:49:17;4.55;;;0.80;;
74259;SDS011;62630;55.874;37.516;2023-06-10T07:51:42;6.60;;;0.88;;
74259;SDS011;62630;55.874;37.516;2023-06-10T07:54:08;2.47;;;0.60;;
74259;SDS011;62630;55.874;37.516;2023-06-10T07:56:37;3.03;;;0.88;;
74259;SDS011;62630;55.874;37.516;2023-06-10T07:59:03;4.43;;;0.90;;
74259;SDS011;62630;55.874;37.516;2023-06-10T08:01:28;2.22;;;0.52;;
74259;SDS011;62630;55.874;37.516;2023-06-10T08:03:55;2.92;;;0.70;;
74259;SDS011;62630;55.874;37.516;2023-06-10T08:06:20;1.30;;;0.40;;
74259;SDS011;62630;55.874;37.516;2023-06-10T08:08:46;1.17;;;0.55;;
74259;SDS011;62630;55.874;37.516;2023-06-10T08:11:12;0.43;;;0.40;;
74259;SDS011;62630;55.874;37.516;2023-06-10T08:13:38;0.88;;;0.60;;
74259;SDS011;62630;55.874;37.516;2023-06-10T08:16:03;0.32;;;0.30;;
74259;SDS011;62630;55.874;37.516;2023-06-10T08:18:29;2.00;;;0.40;;
74259;SDS011;62630;55.874;37.516;2023-06-10T08:20:55;2.70;;;0.47;;
74259;SDS011;62630;55.874;37.516;2023-06-10T08:23:20;2.47;;;0.80;;
74259;SDS011;62630;55.874;37.516;2023-06-10T08:25:46;1.17;;;0.40;;
74259;SDS011;62630;55.874;37.516;2023-06-10T08:28:12;0.65;;;0.40;;
74259;SDS011;62630;55.874;37.516;2023-06-10T08:30:37;2.05;;;0.50;;
74259;SDS011;62630;55.874;37.516;2023-06-10T08:33:03;2.95;;;0.38;;
74259;SDS011;62630;55.874;37.516;2023-06-10T08:35:28;0.43;;;0.40;;
74259;SDS011;62630;55.874;37.516;2023-06-10T08:37:55;2.45;;;0.52;;
74259;SDS011;62630;55.874;37.516;2023-06-10T08:40:20;2.75;;;0.50;;
74259;SDS011;62630;55.874;37.516;2023-06-10T08:42:49;1.10;;;0.63;;
74259;SDS011;62630;55.874;37.516;2023-06-10T08:45:29;1.02;;;0.40;;
74259;SDS011;62630;55.874;37.516;2023-06-10T08:48:00;1.92;;;0.52;;
74259;SDS011;62630;55.874;37.516;2023-06-10T08:50:34;1.90;;;0.40;;
74259;SDS011;62630;55.874;37.516;2023-06-10T08:53:02;3.40;;;0.50;;
74259;SDS011;62630;55.874;37.516;2023-06-10T08:55:31;2.03;;;0.80;;
74259;SDS011;62630;55.874;37.516;2023-06-10T08:58:06;0.98;;;0.47;;
74259;SDS011;62630;55.874;37.516;2023-06-10T09:00:32;0.40;;;0.30;;
74259;SDS011;62630;55.874;37.516;2023-06-10T09:05:27;3.88;;;0.40;;
74259;SDS011;62630;55.874;37.516;2023-06-10T09:07:53;4.38;;;0.73;;
74259;SDS011;62630;55.874;37.516;2023-06-10T09:10:25;3.10;;;0.73;;
74259;SDS011;62630;55.874;37.516;2023-06-10T09:12:51;2.05;;;0.40;;
74259;SDS011;62630;55.874;37.516;2023-06-10T09:15:17;3.78;;;0.50;;
74259;SDS011;62630;55.874;37.516;2023-06-10T09:17:43;2.60;;;0.75;;
74259;SDS011;62630;55.874;37.516;2023-06-10T09:20:08;1.95;;;0.52;;
74259;SDS011;62630;55.874;37.516;2023-06-10T09:22:37;1.83;;;0.68;;
74259;SDS011;62630;55.874;37.516;2023-06-10T09:25:04;5.93;;;1.05;;
74259;SDS011;62630;55.874;37.516;2023-06-10T09:27:32;29.33;;;1.17;;
74259;SDS011;62630;55.874;37.516;2023-06-10T09:29:57;1.48;;;0.40;;
74259;SDS011;62630;55.874;37.516;2023-06-10T09:32:24;1.52;;;0.47;;
74259;SDS011;62630;55.874;37.516;2023-06-10T09:34:50;3.85;;;0.57;;
74259;SDS011;62630;55.874;37.516;2023-06-10T09:37:22;3.40;;;2.15;;
74259;SDS011;62630;55.874;37.516;2023-06-10T09:40:07;3.20;;;1.33;;
74259;SDS011;62630;55.874;37.516;2023-06-10T09:42:35;3.03;;;0.70;;
74259;SDS011;62630;55.874;37.516;2023-06-10T09:45:02;2.17;;;0.60;;
74259;SDS011;62630;55.874;37.516;2023-06-10T09:47:29;1.38;;;0.60;;
74259;SDS011;62630;55.874;37.516;2023-06-10T09:49:54;1.75;;;0.32;;
74259;SDS011;62630;55.874;37.516;2023-06-10T09:52:23;3.60;;;0.70;;
74259;SDS011;62630;55.874;37.516;2023-06-10T09:54:53;3.33;;;0.70;;
74259;SDS011;62630;55.874;37.516;2023-06-10T09:57:23;2.42;;;0.50;;
74259;SDS011;62630;55.874;37.516;2023-06-10T09:59:52;0.70;;;0.30;;
74259;SDS011;62630;55.874;37.516;2023-06-10T10:02:19;1.17;;;0.30;;
74259;SDS011;62630;55.874;37.516;2023-06-10T10:04:44;2.47;;;0.60;;
74259;SDS011;62630;55.874;37.516;2023-06-10T10:07:10;1.92;;;0.57;;
74259;SDS011;62630;55.874;37.516;2023-06-10T10:09:37;1.15;;;0.50;;
74259;SDS011;62630;55.874;37.516;2023-06-10T10:12:05;2.33;;;0.82;;
74259;SDS011;62630;55.874;37.516;2023-06-10T10:14:39;1.10;;;0.70;;
74259;SDS011;62630;55.874;37.516;2023-06-10T10:17:10;0.63;;;0.40;;
74259;SDS011;62630;55.874;37.516;2023-06-10T10:19:37;0.90;;;0.40;;
74259;SDS011;62630;55.874;37.516;2023-06-10T10:22:10;7.63;;;0.73;;
74259;SDS011;62630;55.874;37.516;2023-06-10T10:24:51;1.95;;;0.30;;
74259;SDS011;62630;55.874;37.516;2023-06-10T10:27:21;3.75;;;1.05;;
74259;SDS011;62630;55.874;37.516;2023-06-10T10:29:53;2.45;;;0.60;;
74259;SDS011;62630;55.874;37.516;2023-06-10T10:32:26;1.55;;;0.50;;
74259;SDS011;62630;55.874;37.516;2023-06-10T10:37:42;0.57;;;0.50;;
74259;SDS011;62630;55.874;37.516;2023-06-10T10:40:08;3.72;;;0.68;;
74259;SDS011;62630;55.874;37.516;2023-06-10T10:45:01;1.40;;;0.85;;
74259;SDS011;62630;55.874;37.516;2023-06-10T10:47:28;0.88;;;0.63;;
74259;SDS011;62630;55.874;37.516;2023-06-10T10:49:55;1.40;;;0.80;;
74259;SDS011;62630;55.874;37.516;2023-06-10T10:52:24;0.98;;;0.45;;
74259;SDS011;62630;55.874;37.516;2023-06-10T10:54:50;1.52;;;0.70;;
74259;SDS011;62630;55.874;37.516;2023-06-10T10:57:19;2.05;;;0.68;;
74259;SDS011;62630;55.874;37.516;2023-06-10T11:02:19;0.52;;;0.40;;
74259;SDS011;62630;55.874;37.516;2023-06-10T11:04:56;3.08;;;0.50;;
74259;SDS011;62630;55.874;37.516;2023-06-10T11:07:24;0.63;;;0.40;;
74259;SDS011;62630;55.874;37.516;2023-06-10T11:10:00;2.13;;;0.82;;
74259;SDS011;62630;55.874;37.516;2023-06-10T11:13:05;3.33;;;0.40;;
74259;SDS011;62630;55.874;37.516;2023-06-10T11:15:23;0.98;;;0.60;;
74259;SDS011;62630;55.874;37.516;2023-06-10T11:18:09;2.90;;;0.45;;
74259;SDS011;62630;55.874;37.516;2023-06-10T11:26:10;4.78;;;0.80;;
74259;SDS011;62630;55.874;37.516;2023-06-10T11:34:03;3.45;;;0.43;;
74259;SDS011;62630;55.874;37.516;2023-06-10T11:36:31;1.77;;;0.40;;
74259;SDS011;62630;55.874;37.516;2023-06-10T11:38:59;0.47;;;0.32;;
74259;SDS011;62630;55.874;37.516;2023-06-10T11:41:27;0.77;;;0.47;;
74259;SDS011;62630;55.874;37.516;2023-06-10T11:43:54;4.75;;;0.80;;
74259;SDS011;62630;55.874;37.516;2023-06-10T11:46:23;5.75;;;1.10;;
74259;SDS011;62630;55.874;37.516;2023-06-10T11:48:56;5.57;;;0.77;;
74259;SDS011;62630;55.874;37.516;2023-06-10T11:51:27;8.40;;;0.80;;
74259;SDS011;62630;55.874;37.516;2023-06-10T11:53:54;3.60;;;0.75;;
74259;SDS011;62630;55.874;37.516;2023-06-10T11:56:20;3.22;;;0.70;;
74259;SDS011;62630;55.874;37.516;2023-06-10T11:58:48;1.60;;;0.75;;
74259;SDS011;62630;55.874;37.516;2023-06-10T12:01:22;7.05;;;0.82;;
74259;SDS011;62630;55.874;37.516;2023-06-10T12:03:59;2.38;;;0.73;;
74259;SDS011;62630;55.874;37.516;2023-06-10T12:06:42;3.90;;;1.42;;
74259;SDS011;62630;55.874;37.516;2023-06-10T12:09:18;0.75;;;0.52;;
74259;SDS011;62630;55.874;37.516;2023-06-10T12:11:44;1.92;;;0.63;;
74259;SDS011;62630;55.874;37.516;2023-06-10T12:14:11;2.60;;;0.47;;
74259;SDS011;62630;55.874;37.516;2023-06-10T12:16:37;0.30;;;0.30;;
74259;SDS011;62630;55.874;37.516;2023-06-10T12:19:03;0.90;;;0.52;;
74259;SDS011;62630;55.874;37.516;2023-06-10T12:21:31;0.68;;;0.65;;
74259;SDS011;62630;55.874;37.516;2023-06-10T12:26:33;0.82;;;0.57;;
74259;SDS011;62630;55.874;37.516;2023-06-10T12:29:13;2.17;;;0.60;;
74259;SDS011;62630;55.874;37.516;2023-06-10T12:32:00;0.80;;;0.50;;
74259;SDS011;62630;55.874;37.516;2023-06-10T12:34:28;0.82;;;0.60;;
74259;SDS011;62630;55.874;37.516;2023-06-10T12:37:02;1.25;;;0.70;;
74259;SDS011;62630;55.874;37.516;2023-06-10T12:39:29;1.13;;;0.60;;
74259;SDS011;62630;55.874;37.516;2023-06-10T12:41:55;2.50;;;0.50;;
74259;SDS011;62630;55.874;37.516;2023-06-10T12:44:31;0.70;;;0.40;;
74259;SDS011;62630;55.874;37.516;2023-06-10T12:46:58;0.85;;;0.52;;
74259;SDS011;62630;55.874;37.516;2023-06-10T12:49:24;0.80;;;0.65;;
74259;SDS011;62630;55.874;37.516;2023-06-10T12:51:51;0.32;;;0.30;;
74259;SDS011;62630;55.874;37.516;2023-06-10T12:54:17;4.22;;;0.90;;
74259;SDS011;62630;55.874;37.516;2023-06-10T12:56:42;1.00;;;0.50;;
74259;SDS011;62630;55.874;37.516;2023-06-10T12:59:08;5.22;;;0.90;;
74259;SDS011;62630;55.874;37.516;2023-06-10T13:01:34;2.45;;;0.70;;
74259;SDS011;62630;55.874;37.516;2023-06-10T13:03:59;3.38;;;0.80;;
74259;SDS011;62630;55.874;37.516;2023-06-10T13:06:25;4.88;;;0.80;;
74259;SDS011;62630;55.874;37.516;2023-06-10T13:08:50;3.90;;;0.90;;
74259;SDS011;62630;55.874;37.516;2023-06-10T13:11:16;4.05;;;0.70;;
74259;SDS011;62630;55.874;37.516;2023-06-10T13:13:42;1.20;;;0.80;;
74259;SDS011;62630;55.874;37.516;2023-06-10T13:16:07;3.90;;;0.80;;
74259;SDS011;62630;55.874;37.516;2023-06-10T13:18:33;3.97;;;0.80;;
74259;SDS011;62630;55.874;37.516;2023-06-10T13:21:05;2.50;;;0.60;;
74259;SDS011;62630;55.874;37.516;2023-06-10T13:23:32;2.47;;;0.90;;
74259;SDS011;62630;55.874;37.516;2023-06-10T13:25:57;6.65;;;0.73;;
74259;SDS011;62630;55.874;37.516;2023-06-10T13:28:23;4.15;;;0.75;;
74259;SDS011;62630;55.874;37.516;2023-06-10T13:30:49;5.45;;;0.70;;
74259;SDS011;62630;55.874;37.516;2023-06-10T13:33:15;3.08;;;0.75;;
74259;SDS011;62630;55.874;37.516;2023-06-10T13:35:40;1.10;;;0.55;;
74259;SDS011;62630;55.874;37.516;2023-06-10T13:38:06;3.38;;;0.95;;
74259;SDS011;62630;55.874;37.516;2023-06-10T13:40:32;1.38;;;0.65;;
74259;SDS011;62630;55.874;37.516;2023-06-10T13:42:58;1.52;;;0.50;;
74259;SDS011;62630;55.874;37.516;2023-06-10T13:45:23;2.78;;;0.70;;
74259;SDS011;62630;55.874;37.516;2023-06-10T13:47:49;6.55;;;0.65;;
74259;SDS011;62630;55.874;37.516;2023-06-10T13:50:15;3.40;;;0.88;;
74259;SDS011;62630;55.874;37.516;2023-06-10T13:52:41;3.58;;;0.77;;
74259;SDS011;62630;55.874;37.516;2023-06-10T13:55:09;7.05;;;1.08;;
74259;SDS011;62630;55.874;37.516;2023-06-10T13:57:34;3.22;;;0.80;;
74259;SDS011;62630;55.874;37.516;2023-06-10T14:00:00;2.13;;;0.70;;
74259;SDS011;62630;55.874;37.516;2023-06-10T14:02:26;4.82;;;1.33;;
74259;SDS011;62630;55.874;37.516;2023-06-10T14:04:51;3.72;;;0.80;;
74259;SDS011;62630;55.874;37.516;2023-06-10T14:07:17;1.30;;;0.63;;
74259;SDS011;62630;55.874;37.516;2023-06-10T14:09:42;2.33;;;0.60;;
74259;SDS011;62630;55.874;37.516;2023-06-10T14:12:08;1.70;;;0.68;;
74259;SDS011;62630;55.874;37.516;2023-06-10T14:14:34;2.40;;;0.73;;
74259;SDS011;62630;55.874;37.516;2023-06-10T14:17:01;3.65;;;0.88;;
74259;SDS011;62630;55.874;37.516;2023-06-10T14:19:26;2.30;;;0.70;;
74259;SDS011;62630;55.874;37.516;2023-06-10T14:21:52;2.83;;;0.60;;
74259;SDS011;62630;55.874;37.516;2023-06-10T14:24:20;1.95;;;0.85;;
74259;SDS011;62630;55.874;37.516;2023-06-10T14:26:45;2.58;;;0.68;;
74259;SDS011;62630;55.874;37.516;2023-06-10T14:29:11;1.42;;;0.45;;
74259;SDS011;62630;55.874;37.516;2023-06-10T14:31:39;1.90;;;0.60;;
74259;SDS011;62630;55.874;37.516;2023-06-10T14:34:05;1.65;;;0.45;;
74259;SDS011;62630;55.874;37.516;2023-06-10T14:36:32;1.17;;;0.57;;
74259;SDS011;62630;55.874;37.516;2023-06-10T14:38:58;3.80;;;0.80;;
74259;SDS011;62630;55.874;37.516;2023-06-10T14:41:24;3.15;;;1.23;;
74259;SDS011;62630;55.874;37.516;2023-06-10T14:43:49;2.25;;;0.82;;
74259;SDS011;62630;55.874;37.516;2023-06-10T14:46:15;0.70;;;0.63;;
74259;SDS011;62630;55.874;37.516;2023-06-10T14:48:41;1.40;;;0.50;;
74259;SDS011;62630;55.874;37.516;2023-06-10T14:51:06;1.55;;;0.85;;
74259;SDS011;62630;55.874;37.516;2023-06-10T14:53:32;3.10;;;0.75;;
74259;SDS011;62630;55.874;37.516;2023-06-10T14:55:58;1.77;;;0.80;;
74259;SDS011;62630;55.874;37.516;2023-06-10T14:58:23;8.32;;;0.80;;
74259;SDS011;62630;55.874;37.516;2023-06-10T15:00:49;2.67;;;0.90;;
74259;SDS011;62630;55.874;37.516;2023-06-10T15:03:15;1.70;;;0.77;;
74259;SDS011;62630;55.874;37.516;2023-06-10T15:05:40;7.57;;;1.30;;
74259;SDS011;62630;55.874;37.516;2023-06-10T15:08:06;9.98;;;0.90;;